createdAt,value
2018-05-05T00:00:09.259Z,14.37
2018-05-05T00:02:35.186Z,14.38
2018-05-05T00:05:05.137Z,14.25
2018-05-05T00:07:31.058Z,14.23
2018-05-05T00:09:58.969Z,14.15
2018-05-05T00:12:24.880Z,14.12
2018-05-05T00:14:54.231Z,14.17
2018-05-05T00:17:20.111Z,14.26
2018-05-05T00:19:46.023Z,14.25
2018-05-05T00:22:11.912Z,14.29
2018-05-05T00:24:38.724Z,14.32
2018-05-05T00:27:05.443Z,14.24
2018-05-05T00:29:31.336Z,14.12
2018-05-05T00:32:00.383Z,14.01
2018-05-05T00:34:26.285Z,14.02
2018-05-05T00:36:55.411Z,14.04
2018-05-05T00:39:21.362Z,13.89
2018-05-05T00:41:49.190Z,13.89
2018-05-05T00:44:15.053Z,13.84
2018-05-05T00:46:43.912Z,13.88
2018-05-05T00:52:00.167Z,14.02
2018-05-05T00:54:38.512Z,14.00
2018-05-05T00:57:04.385Z,13.89
2018-05-05T00:59:30.289Z,13.88
2018-05-05T01:01:56.194Z,13.84
2018-05-05T01:04:22.087Z,13.90
2018-05-05T01:06:47.965Z,13.91
2018-05-05T01:09:14.003Z,13.86
2018-05-05T01:11:39.936Z,13.86
2018-05-05T01:14:06.758Z,13.84
2018-05-05T01:16:32.689Z,13.86
2018-05-05T01:18:58.584Z,13.82
2018-05-05T01:21:24.509Z,13.76
2018-05-05T01:23:50.418Z,13.77
2018-05-05T01:26:16.335Z,13.69
2018-05-05T01:28:42.246Z,13.65
2018-05-05T01:31:08.163Z,13.63
2018-05-05T01:33:34.125Z,13.42
2018-05-05T01:36:00.011Z,13.52
2018-05-05T01:38:25.956Z,13.47
2018-05-05T01:40:51.855Z,13.43
2018-05-05T01:43:17.783Z,13.41
2018-05-05T01:45:43.676Z,13.38
2018-05-05T01:48:10.635Z,13.32
2018-05-05T01:50:36.606Z,13.30
2018-05-05T01:53:02.491Z,13.23
2018-05-05T01:55:28.383Z,13.24
2018-05-05T01:57:54.295Z,13.09
2018-05-05T02:00:20.207Z,12.82
2018-05-05T02:02:46.070Z,12.77
2018-05-05T02:05:12.039Z,12.77
2018-05-05T02:07:37.948Z,12.81
2018-05-05T02:10:03.853Z,12.94
2018-05-05T02:12:29.741Z,12.88
2018-05-05T02:14:56.189Z,12.82
2018-05-05T02:17:22.083Z,12.87
2018-05-05T02:19:47.949Z,12.96
2018-05-05T02:22:15.732Z,12.99
2018-05-05T02:24:41.608Z,12.90
2018-05-05T02:27:10.615Z,12.91
2018-05-05T02:29:36.483Z,12.96
2018-05-05T02:32:05.501Z,12.88
2018-05-05T02:34:31.383Z,12.80
2018-05-05T02:37:00.445Z,12.79
2018-05-05T02:39:26.319Z,12.80
2018-05-05T02:41:55.511Z,12.73
2018-05-05T02:44:21.455Z,12.73
2018-05-05T02:46:47.349Z,12.77
2018-05-05T02:49:13.240Z,12.64
2018-05-05T02:51:39.164Z,12.56
2018-05-05T02:54:07.165Z,12.59
2018-05-05T02:56:33.061Z,12.60
2018-05-05T02:59:00.970Z,12.58
2018-05-05T03:01:26.857Z,12.58
2018-05-05T03:03:56.229Z,12.50
2018-05-05T03:06:22.079Z,12.52
2018-05-05T03:08:51.972Z,12.45
2018-05-05T03:11:17.903Z,12.52
2018-05-05T03:13:45.587Z,12.53
2018-05-05T03:16:11.531Z,12.49
2018-05-05T03:18:41.324Z,12.49
2018-05-05T03:21:07.239Z,12.38
2018-05-05T03:23:33.134Z,12.40
2018-05-05T03:25:59.040Z,12.37
2018-05-05T03:28:24.903Z,12.30
2018-05-05T03:30:51.451Z,12.22
2018-05-05T03:33:17.419Z,12.22
2018-05-05T03:35:46.161Z,12.14
2018-05-05T03:38:12.035Z,12.06
2018-05-05T03:40:40.800Z,11.98
2018-05-05T03:43:06.745Z,11.84
2018-05-05T03:45:35.865Z,11.77
2018-05-05T03:48:01.790Z,11.76
2018-05-05T03:50:30.243Z,11.74
2018-05-05T03:52:56.159Z,11.77
2018-05-05T03:55:25.417Z,11.81
2018-05-05T03:57:51.336Z,11.86
2018-05-05T04:00:29.659Z,11.76
2018-05-05T04:03:07.995Z,11.59
2018-05-05T04:05:42.443Z,11.62
2018-05-05T04:08:08.324Z,11.90
2018-05-05T04:10:34.201Z,12.08
2018-05-05T04:13:00.199Z,12.18
2018-05-05T04:15:26.119Z,12.25
2018-05-05T04:17:52.079Z,12.34
2018-05-05T04:20:18.076Z,12.26
2018-05-05T04:22:43.976Z,12.30
2018-05-05T04:25:09.895Z,12.34
2018-05-05T04:27:35.781Z,12.36
2018-05-05T04:30:01.671Z,12.22
2018-05-05T04:32:27.596Z,12.26
2018-05-05T04:34:53.482Z,12.31
2018-05-05T04:37:19.395Z,12.43
2018-05-05T04:39:45.336Z,12.43
2018-05-05T04:42:11.284Z,12.52
2018-05-05T04:44:37.211Z,12.57
2018-05-05T04:47:03.051Z,12.54
2018-05-05T04:49:28.933Z,12.49
2018-05-05T04:51:54.830Z,12.62
2018-05-05T04:54:20.650Z,12.76
2018-05-05T04:56:46.565Z,12.83
2018-05-05T04:59:12.459Z,12.85
2018-05-05T05:01:38.350Z,12.83
2018-05-05T05:04:04.247Z,12.98
2018-05-05T05:06:30.215Z,12.90
2018-05-05T05:08:56.152Z,13.01
2018-05-05T05:11:22.030Z,13.03
2018-05-05T05:13:47.956Z,12.96
2018-05-05T05:16:13.816Z,13.05
2018-05-05T05:18:39.716Z,13.16
2018-05-05T05:21:07.368Z,13.12
2018-05-05T05:23:33.263Z,13.05
2018-05-05T05:26:05.920Z,13.22
2018-05-05T05:28:31.771Z,13.26
2018-05-05T05:30:57.672Z,13.28
2018-05-05T05:33:23.621Z,13.13
2018-05-05T05:35:51.719Z,13.02
2018-05-05T05:38:17.648Z,13.08
2018-05-05T05:40:47.101Z,13.07
2018-05-05T05:43:13.024Z,13.23
2018-05-05T05:45:42.831Z,13.52
2018-05-05T05:48:08.734Z,13.73
2018-05-05T05:50:34.606Z,13.92
2018-05-05T05:53:00.533Z,14.02
2018-05-05T05:55:26.447Z,13.91
2018-05-05T05:57:52.850Z,13.99
2018-05-05T06:00:18.762Z,14.11
2018-05-05T06:02:48.114Z,14.21
2018-05-05T06:05:14.075Z,14.19
2018-05-05T06:07:43.235Z,14.20
2018-05-05T06:10:09.164Z,14.22
2018-05-05T06:12:36.895Z,14.05
2018-05-05T06:15:02.834Z,13.97
2018-05-05T06:17:32.167Z,13.98
2018-05-05T06:19:58.048Z,13.93
2018-05-05T06:22:27.353Z,14.07
2018-05-05T06:24:53.243Z,14.16
2018-05-05T06:27:19.169Z,14.23
2018-05-05T06:29:45.036Z,14.45
2018-05-05T06:32:10.941Z,14.73
2018-05-05T06:34:39.243Z,14.97
2018-05-05T06:37:05.808Z,15.19
2018-05-05T06:39:33.288Z,15.39
2018-05-05T06:41:59.191Z,15.53
2018-05-05T06:44:28.249Z,15.53
2018-05-05T06:46:54.150Z,15.56
2018-05-05T06:49:23.285Z,15.72
2018-05-05T06:51:49.169Z,15.63
2018-05-05T06:54:18.384Z,15.83
2018-05-05T06:56:44.261Z,16.35
2018-05-05T06:59:11.590Z,16.42
2018-05-05T07:01:37.516Z,16.56
2018-05-05T07:04:03.409Z,16.87
2018-05-05T07:06:29.307Z,16.98
2018-05-05T07:08:55.283Z,17.04
2018-05-05T07:11:24.293Z,17.29
2018-05-05T07:13:50.164Z,17.51
2018-05-05T07:16:18.259Z,17.75
2018-05-05T07:18:44.133Z,17.68
2018-05-05T07:21:13.774Z,17.71
2018-05-05T07:23:39.661Z,18.01
2018-05-05T07:26:08.943Z,18.16
2018-05-05T07:28:34.830Z,18.43
2018-05-05T07:31:02.153Z,18.51
2018-05-05T07:33:28.036Z,18.68
2018-05-05T07:35:56.746Z,18.86
2018-05-05T07:38:22.650Z,18.99
2018-05-05T07:40:48.526Z,18.86
2018-05-05T07:43:14.435Z,18.59
2018-05-05T07:45:40.339Z,18.39
2018-05-05T07:48:10.152Z,18.42
2018-05-05T07:50:36.048Z,18.80
2018-05-05T07:53:05.055Z,18.96
2018-05-05T07:55:30.971Z,18.93
2018-05-05T07:57:58.130Z,19.18
2018-05-05T08:00:24.044Z,19.25
2018-05-05T08:02:53.233Z,19.41
2018-05-05T08:05:19.175Z,19.76
2018-05-05T08:07:48.227Z,19.98
2018-05-05T08:10:14.114Z,20.15
2018-05-05T08:12:43.086Z,19.61
2018-05-05T08:15:08.996Z,19.58
2018-05-05T08:17:34.879Z,19.84
2018-05-05T08:20:00.814Z,20.11
2018-05-05T08:22:26.652Z,20.30
2018-05-05T08:24:54.017Z,20.33
2018-05-05T08:27:19.925Z,20.60
2018-05-05T08:29:49.026Z,20.13
2018-05-05T08:32:14.937Z,20.41
2018-05-05T08:34:44.066Z,20.72
2018-05-05T08:37:09.952Z,20.72
2018-05-05T08:39:37.796Z,20.90
2018-05-05T08:42:03.703Z,21.26
2018-05-05T08:44:32.649Z,21.35
2018-05-05T08:46:58.557Z,21.28
2018-05-05T08:49:27.498Z,21.50
2018-05-05T08:51:53.373Z,21.56
2018-05-05T08:54:19.292Z,21.67
2018-05-05T08:56:45.182Z,21.88
2018-05-05T08:59:11.071Z,21.81
2018-05-05T09:01:40.173Z,22.11
2018-05-05T09:04:07.166Z,22.01
2018-05-05T09:06:33.625Z,22.19
2018-05-05T09:08:59.488Z,22.34
2018-05-05T09:11:28.328Z,22.46
2018-05-05T09:13:54.239Z,22.61
2018-05-05T09:16:23.094Z,22.48
2018-05-05T09:18:49.028Z,22.27
2018-05-05T09:21:17.711Z,22.53
2018-05-05T09:23:43.599Z,22.44
2018-05-05T09:26:12.409Z,22.64
2018-05-05T09:28:38.314Z,22.87
2018-05-05T09:31:04.216Z,23.15
2018-05-05T09:33:30.122Z,22.99
2018-05-05T09:35:56.030Z,22.78
2018-05-05T09:38:24.603Z,23.20
2018-05-05T09:40:50.494Z,23.41
2018-05-05T09:43:19.664Z,23.20
2018-05-05T09:45:45.557Z,23.34
2018-05-05T09:48:14.580Z,23.56
2018-05-05T09:50:40.481Z,23.36
2018-05-05T09:53:09.525Z,23.75
2018-05-05T09:55:35.436Z,23.80
2018-05-05T09:58:03.420Z,23.53
2018-05-05T10:00:29.351Z,23.95
2018-05-05T10:02:58.976Z,23.99
2018-05-05T10:05:24.877Z,24.21
2018-05-05T10:07:50.780Z,24.54
2018-05-05T10:10:16.714Z,24.64
2018-05-05T10:12:42.608Z,24.47
2018-05-05T10:15:10.264Z,24.69
2018-05-05T10:17:36.187Z,24.63
2018-05-05T10:20:05.198Z,24.90
2018-05-05T10:22:31.111Z,24.97
2018-05-05T10:25:00.052Z,25.15
2018-05-05T10:27:25.964Z,25.34
2018-05-05T10:29:54.975Z,25.22
2018-05-05T10:32:20.936Z,25.17
2018-05-05T10:34:48.629Z,25.19
2018-05-05T10:37:14.514Z,25.34
2018-05-05T10:39:43.625Z,25.28
2018-05-05T10:42:09.493Z,25.02
2018-05-05T10:44:35.443Z,24.94
2018-05-05T10:47:01.293Z,25.37
2018-05-05T10:49:27.211Z,25.44
2018-05-05T10:51:56.475Z,25.65
2018-05-05T10:54:22.391Z,25.55
2018-05-05T10:56:51.457Z,26.01
2018-05-05T10:59:17.251Z,26.40
2018-05-05T11:01:44.534Z,26.48
2018-05-05T11:04:10.395Z,26.44
2018-05-05T11:06:39.516Z,26.47
2018-05-05T11:09:05.415Z,26.73
2018-05-05T11:11:34.057Z,26.58
2018-05-05T11:16:48.801Z,26.60
2018-05-05T11:19:14.688Z,26.75
2018-05-05T11:21:40.619Z,26.66
2018-05-05T11:24:06.537Z,26.88
2018-05-05T11:26:32.443Z,27.29
2018-05-05T11:28:58.359Z,27.00
2018-05-05T11:31:24.316Z,26.92
2018-05-05T11:33:50.246Z,27.44
2018-05-05T11:36:16.237Z,27.61
2018-05-05T11:38:42.143Z,27.54
2018-05-05T11:41:08.044Z,27.26
2018-05-05T11:43:34.041Z,27.38
2018-05-05T11:45:59.907Z,27.45
2018-05-05T11:48:25.807Z,27.73
2018-05-05T11:50:51.659Z,28.05
2018-05-05T11:53:17.601Z,28.05
2018-05-05T11:55:43.499Z,28.27
2018-05-05T11:58:09.405Z,27.88
2018-05-05T12:00:35.318Z,28.28
2018-05-05T12:03:01.219Z,28.15
2018-05-05T12:05:27.131Z,28.24
2018-05-05T12:07:53.005Z,28.23
2018-05-05T12:10:20.952Z,28.29
2018-05-05T12:12:46.846Z,28.57
2018-05-05T12:15:16.434Z,28.85
2018-05-05T12:17:42.312Z,28.77
2018-05-05T12:20:11.434Z,28.40
2018-05-05T12:22:37.339Z,28.27
2018-05-05T12:25:04.385Z,28.83
2018-05-05T12:27:30.284Z,29.34
2018-05-05T12:29:59.861Z,29.54
2018-05-05T12:32:25.715Z,29.40
2018-05-05T12:34:51.599Z,29.42
2018-05-05T12:37:17.547Z,29.33
2018-05-05T12:39:43.442Z,29.19
2018-05-05T12:42:12.611Z,29.45
2018-05-05T12:44:38.519Z,29.32
2018-05-05T12:47:05.569Z,29.78
2018-05-05T12:49:31.476Z,29.66
2018-05-05T12:52:00.310Z,29.87
2018-05-05T12:54:26.228Z,29.92
2018-05-05T12:56:55.656Z,30.17
2018-05-05T12:59:21.550Z,30.47
2018-05-05T13:01:50.710Z,30.48
2018-05-05T13:04:16.629Z,30.25
2018-05-05T13:06:44.368Z,29.66
2018-05-05T13:09:10.257Z,30.00
2018-05-05T13:11:36.198Z,30.31
2018-05-05T13:14:02.083Z,30.39
2018-05-05T13:16:28.001Z,29.73
2018-05-05T13:18:57.221Z,29.90
2018-05-05T13:21:23.120Z,30.07
2018-05-05T13:23:51.033Z,30.02
2018-05-05T13:26:16.999Z,30.11
2018-05-05T13:28:46.204Z,30.22
2018-05-05T13:31:12.060Z,30.40
2018-05-05T13:33:40.978Z,30.36
2018-05-05T13:36:06.895Z,30.29
2018-05-05T13:38:36.824Z,30.22
2018-05-05T13:41:02.716Z,30.17
2018-05-05T13:43:30.456Z,30.49
2018-05-05T13:45:56.384Z,30.61
2018-05-05T13:48:22.247Z,30.97
2018-05-05T13:50:48.140Z,30.96
2018-05-05T13:53:14.035Z,30.73
2018-05-05T13:55:41.476Z,30.40
2018-05-05T13:58:07.381Z,30.47
2018-05-05T14:00:36.452Z,30.44
2018-05-05T14:03:02.366Z,30.59
2018-05-05T14:05:31.659Z,30.43
2018-05-05T14:07:57.589Z,30.52
2018-05-05T14:10:27.482Z,30.57
2018-05-05T14:12:53.377Z,30.55
2018-05-05T14:15:20.485Z,30.53
2018-05-05T14:17:46.403Z,30.73
2018-05-05T14:20:15.671Z,30.23
2018-05-05T14:22:41.574Z,30.34
2018-05-05T14:25:07.482Z,30.46
2018-05-05T14:27:33.364Z,30.34
2018-05-05T14:29:59.228Z,30.59
2018-05-05T14:32:26.760Z,30.59
2018-05-05T14:34:52.644Z,30.85
2018-05-05T14:37:21.951Z,30.68
2018-05-05T14:39:47.875Z,30.48
2018-05-05T14:42:16.866Z,30.40
2018-05-05T14:44:42.772Z,30.48
2018-05-05T14:47:12.638Z,30.26
2018-05-05T14:49:38.546Z,30.34
2018-05-05T14:52:06.302Z,30.36
2018-05-05T14:54:32.194Z,29.89
2018-05-05T14:57:01.817Z,30.21
2018-05-05T14:59:27.712Z,30.45
2018-05-05T15:01:53.635Z,30.38
2018-05-05T15:04:19.543Z,30.44
2018-05-05T15:06:45.455Z,30.28
2018-05-05T15:09:12.005Z,30.05
2018-05-05T15:11:37.925Z,29.85
2018-05-05T15:14:06.842Z,29.72
2018-05-05T15:16:32.785Z,29.51
2018-05-05T15:19:02.504Z,29.37
2018-05-05T15:21:28.406Z,28.96
2018-05-05T15:23:56.289Z,28.78
2018-05-05T15:26:22.117Z,28.72
2018-05-05T15:28:50.928Z,28.90
2018-05-05T15:31:16.846Z,29.08
2018-05-05T15:33:45.631Z,29.31
2018-05-05T15:36:11.580Z,29.16
2018-05-05T15:38:37.489Z,29.00
2018-05-05T15:41:03.387Z,29.20
2018-05-05T15:43:29.276Z,29.20
2018-05-05T15:45:59.043Z,28.76
2018-05-05T15:48:24.980Z,28.75
2018-05-05T15:50:52.856Z,28.63
2018-05-05T15:53:18.796Z,28.49
2018-05-05T15:55:48.500Z,28.51
2018-05-05T15:58:14.396Z,28.29
2018-05-05T16:00:42.176Z,28.46
2018-05-05T16:03:08.107Z,28.47
2018-05-05T16:05:37.125Z,28.31
2018-05-05T16:08:03.015Z,28.33
2018-05-05T16:10:30.897Z,28.34
2018-05-05T16:12:56.791Z,28.25
2018-05-05T16:15:22.661Z,27.82
2018-05-05T16:17:48.567Z,27.68
2018-05-05T16:20:14.475Z,27.49
2018-05-05T16:22:43.763Z,27.34
2018-05-05T16:25:09.656Z,27.54
2018-05-05T16:27:38.799Z,27.29
2018-05-05T16:30:04.671Z,27.22
2018-05-05T16:32:33.914Z,26.93
2018-05-05T16:34:59.812Z,26.62
2018-05-05T16:37:26.747Z,26.68
2018-05-05T16:39:52.645Z,26.70
2018-05-05T16:42:21.879Z,26.67
2018-05-05T16:44:47.813Z,26.55
2018-05-05T16:47:16.926Z,26.44
2018-05-05T16:49:42.828Z,26.10
2018-05-05T16:52:08.735Z,25.92
2018-05-05T16:54:34.727Z,25.75
2018-05-05T16:57:00.576Z,25.75
2018-05-05T16:59:28.071Z,25.67
2018-05-05T17:01:53.927Z,25.69
2018-05-05T17:04:22.960Z,25.37
2018-05-05T17:06:48.873Z,25.08
2018-05-05T17:09:17.756Z,25.03
2018-05-05T17:11:43.683Z,24.90
2018-05-05T17:14:12.319Z,24.79
2018-05-05T17:16:38.222Z,24.85
2018-05-05T17:19:08.025Z,25.08
2018-05-05T17:21:33.902Z,25.04
2018-05-05T17:24:01.688Z,24.87
2018-05-05T17:26:27.642Z,24.81
2018-05-05T17:28:53.545Z,24.78
2018-05-05T17:31:19.436Z,24.83
2018-05-05T17:33:45.398Z,24.67
2018-05-05T17:36:14.795Z,24.40
2018-05-05T17:38:40.679Z,24.35
2018-05-05T17:41:08.502Z,24.15
2018-05-05T17:43:34.446Z,24.06
2018-05-05T17:46:04.279Z,24.20
2018-05-05T17:48:30.211Z,24.17
2018-05-05T17:50:57.323Z,23.89
2018-05-05T17:53:23.218Z,23.92
2018-05-05T17:55:52.212Z,23.89
2018-05-05T17:58:18.069Z,23.83
2018-05-05T18:00:46.843Z,23.75
2018-05-05T18:03:12.817Z,23.78
2018-05-05T18:05:38.749Z,23.68
2018-05-05T18:08:04.701Z,23.65
2018-05-05T18:10:30.580Z,23.58
2018-05-05T18:12:59.631Z,23.40
2018-05-05T18:15:25.559Z,23.31
2018-05-05T18:17:53.224Z,23.31
2018-05-05T18:20:19.120Z,23.35
2018-05-05T18:22:47.983Z,23.31
2018-05-05T18:25:13.893Z,23.21
2018-05-05T18:27:42.763Z,23.15
2018-05-05T18:30:08.661Z,23.01
2018-05-05T18:32:38.408Z,22.93
2018-05-05T18:35:04.331Z,22.73
2018-05-05T18:37:32.074Z,22.66
2018-05-05T18:39:57.978Z,22.57
2018-05-05T18:42:23.825Z,22.48
2018-05-05T18:44:49.687Z,22.45
2018-05-05T18:47:15.548Z,22.29
2018-05-05T18:49:44.640Z,22.23
2018-05-05T18:52:10.581Z,22.22
2018-05-05T18:54:38.474Z,22.14
2018-05-05T18:57:04.395Z,22.06
2018-05-05T18:59:33.740Z,21.92
2018-05-05T19:01:59.700Z,21.56
2018-05-05T19:04:28.819Z,21.59
2018-05-05T19:06:54.731Z,21.55
2018-05-05T19:09:23.703Z,21.61
2018-05-05T19:11:49.633Z,21.53
2018-05-05T19:14:17.388Z,21.49
2018-05-05T19:16:43.285Z,21.39
2018-05-05T19:19:09.224Z,21.38
2018-05-05T19:21:35.103Z,21.38
2018-05-05T19:24:01.038Z,21.35
2018-05-05T19:26:30.163Z,21.27
2018-05-05T19:28:56.050Z,21.10
2018-05-05T19:31:23.936Z,21.07
2018-05-05T19:33:49.863Z,21.02
2018-05-05T19:36:19.696Z,20.84
2018-05-05T19:38:45.625Z,20.86
2018-05-05T19:41:13.439Z,20.82
2018-05-05T19:43:39.319Z,20.73
2018-05-05T19:46:08.321Z,20.57
2018-05-05T19:48:34.204Z,20.55
2018-05-05T19:51:03.465Z,20.52
2018-05-05T19:53:29.392Z,20.43
2018-05-05T19:55:55.297Z,20.40
2018-05-05T19:58:21.211Z,20.45
2018-05-05T20:00:47.106Z,20.26
2018-05-05T20:03:14.530Z,20.24
2018-05-05T20:05:40.448Z,20.17
2018-05-05T20:08:09.643Z,20.23
2018-05-05T20:10:35.596Z,20.28
2018-05-05T20:13:04.493Z,20.20
2018-05-05T20:15:30.423Z,20.06
2018-05-05T20:17:59.547Z,20.07
2018-05-05T20:20:25.436Z,19.92
2018-05-05T20:22:53.491Z,19.86
2018-05-05T20:25:19.405Z,19.90
2018-05-05T20:27:48.699Z,19.94
2018-05-05T20:30:14.603Z,19.93
2018-05-05T20:32:40.491Z,19.96
2018-05-05T20:35:06.473Z,19.90
2018-05-05T20:37:32.338Z,19.82
2018-05-05T20:40:01.531Z,19.79
2018-05-05T20:42:27.437Z,19.79
2018-05-05T20:44:54.593Z,19.65
2018-05-05T20:47:20.506Z,19.57
2018-05-05T20:49:49.553Z,19.53
2018-05-05T20:52:15.450Z,19.40
2018-05-05T20:54:44.347Z,19.42
2018-05-05T20:57:10.206Z,19.41
2018-05-05T20:59:39.339Z,19.36
2018-05-05T21:02:05.228Z,19.37
2018-05-05T21:04:34.245Z,19.39
2018-05-05T21:07:00.138Z,19.43
2018-05-05T21:09:26.025Z,19.38
2018-05-05T21:11:51.967Z,19.30
2018-05-05T21:14:17.828Z,19.19
2018-05-05T21:16:45.174Z,19.19
2018-05-05T21:19:11.079Z,19.05
2018-05-05T21:21:40.301Z,18.99
2018-05-05T21:24:06.190Z,18.85
2018-05-05T21:26:35.191Z,18.81
2018-05-05T21:29:01.108Z,18.72
2018-05-05T21:31:30.334Z,18.79
2018-05-05T21:33:56.255Z,18.79
2018-05-05T21:36:25.510Z,18.77
2018-05-05T21:38:51.386Z,18.64
2018-05-05T21:41:20.461Z,18.52
2018-05-05T21:43:46.367Z,18.60
2018-05-05T21:46:12.255Z,18.58
2018-05-05T21:48:38.199Z,18.63
2018-05-05T21:51:04.164Z,18.63
2018-05-05T21:53:30.172Z,18.67
2018-05-05T21:55:56.066Z,18.69
2018-05-05T21:58:25.219Z,18.69
2018-05-05T22:00:51.137Z,18.69
2018-05-05T22:03:20.968Z,18.67
2018-05-05T22:05:46.876Z,18.55
2018-05-05T22:08:16.090Z,18.60
2018-05-05T22:10:41.996Z,18.46
2018-05-05T22:13:09.322Z,18.38
2018-05-05T22:15:35.469Z,18.44
2018-05-05T22:18:04.639Z,18.51
2018-05-05T22:20:30.528Z,18.49
2018-05-05T22:22:56.434Z,18.44
2018-05-05T22:25:22.314Z,18.40
2018-05-05T22:27:48.209Z,18.35
2018-05-05T22:30:17.166Z,18.33
2018-05-05T22:32:43.063Z,18.31
2018-05-05T22:35:10.250Z,18.35
2018-05-05T22:37:36.155Z,18.36
2018-05-05T22:40:05.388Z,18.39
2018-05-05T22:42:31.299Z,18.34
2018-05-05T22:45:00.768Z,18.29
2018-05-05T22:47:26.679Z,18.25
2018-05-05T22:49:56.122Z,18.25
2018-05-05T22:52:21.996Z,18.16
2018-05-05T22:54:49.307Z,18.08
2018-05-05T22:57:15.216Z,18.11
2018-05-05T22:59:41.135Z,18.17
2018-05-05T23:02:07.008Z,18.12
2018-05-05T23:04:32.891Z,18.06
2018-05-05T23:07:01.966Z,17.96
2018-05-05T23:09:27.841Z,18.00
2018-05-05T23:11:55.860Z,17.93
2018-05-05T23:14:21.829Z,17.90
2018-05-05T23:16:50.821Z,17.93
2018-05-05T23:19:16.734Z,17.93
2018-05-05T23:21:45.761Z,17.85
2018-05-05T23:24:11.638Z,17.83
2018-05-05T23:26:40.800Z,17.68
2018-05-05T23:29:06.708Z,17.61
2018-05-05T23:31:34.584Z,17.37
2018-05-05T23:34:00.506Z,17.25
2018-05-05T23:36:26.365Z,17.37
2018-05-05T23:49:44.791Z,17.05
2018-05-05T23:52:10.711Z,16.84
2018-05-05T23:54:36.577Z,16.85
2018-05-05T23:57:02.544Z,16.88
2018-05-05T23:59:28.471Z,16.95
